• Join FlightAware (Why Join?)
  • Login
  • US Flag 
07:47AM EDT


 

Airport Tracker/Info


-or-


 

Live Flight TrackerFlight Track Log ✈ ASQ5685 ✈ 25-Apr-2014 ✈ KATL - KIAD

Flight Track Log - Related Links

Times and Time Zones

All times are in EDT time to prevent confusion due to time zone crossing. See the ASQ5685 flight status page for this flight to view local times or setup timezone preferences in your user account.

Time Position Orientation Groundspeed Altitude Reporting Facility
EDT Latitude Longitude Course Direction KTS MPH feet Rate Location/Type
10:05AM 33.6333 -84.4667 248° West 170 196 2,300  Level Atlanta TRACON
10:06AM 33.6167 -84.5167 248° West 220 253 3,800 2,280 Climbing Atlanta TRACON
10:07AM 33.5667 -84.5833 228° Southwest 257 296 6,900 2,880 Climbing Atlanta TRACON
10:08AM 33.4833 -84.5833 180° South 282 325 9,600 1,860 Climbing Atlanta TRACON
10:09AM 33.4533 -84.4644 107° East 327 376 11,000 1,140 Climbing Atlanta Center
10:10AM 33.4536 -84.3375 90° East 350 403 12,200 1,200 Climbing Atlanta Center
10:11AM 33.5144 -84.2356 54° Northeast 343 395 13,400 1,320 Climbing Atlanta Center
10:13AM 33.7086 -84.1136 28° Northeast 358 412 16,300 1,380 Climbing Atlanta Center
10:14AM 33.7817 -84.0114 49° Northeast 374 430 17,700 1,440 Climbing Atlanta Center
10:15AM 33.8400 -83.8936 59° Northeast 390 449 19,200 1,320 Climbing Atlanta Center
10:16AM 33.8983 -83.7711 60° Northeast 404 465 20,400 1,200 Climbing Atlanta Center
10:17AM 33.9669 -83.6556 54° Northeast 416 479 21,600 960 Climbing Atlanta Center
10:18AM 34.0394 -83.5400 53° Northeast 426 490 22,400 780 Climbing Atlanta Center
10:19AM 34.1142 -83.4242 52° Northeast 433 498 23,200 720 Climbing Atlanta Center
10:20AM 34.1886 -83.3006 54° Northeast 439 505 23,900 600 Climbing Atlanta Center
10:21AM 34.2672 -83.1792 52° Northeast 449 517 24,500 600 Climbing Atlanta Center
10:22AM 34.3456 -83.0525 53° Northeast 455 524 25,100 600 Climbing Atlanta Center
10:23AM 34.4236 -82.9283 53° Northeast 461 531 25,700 600 Climbing Atlanta Center
10:24AM 34.5058 -82.7986 52° Northeast 466 536 26,300 600 Climbing Atlanta Center
10:25AM 34.5839 -82.6689 54° Northeast 466 536 26,900 600 Climbing Atlanta Center
10:26AM 34.6636 -82.5386 53° Northeast 472 543 27,500 600 Climbing Atlanta Center
10:27AM 34.7456 -82.4083 53° Northeast 478 550 28,100 600 Climbing Atlanta Center
10:28AM 34.8250 -82.2753 54° Northeast 478 550 28,700 420 Climbing Atlanta Center
10:29AM 34.9025 -82.1444 54° Northeast 483 556 29,000 120 Climbing Atlanta Center
10:30AM 34.9778 -82.0261 52° Northeast 483 556 29,000  Level Atlanta Center
10:31AM 35.0567 -81.8872 55° Northeast 488 562 29,000  Level Atlanta Center
10:32AM 35.1333 -81.7428 57° Northeast 498 573 29,000  Level Atlanta Center
10:33AM 35.2081 -81.6011 57° Northeast 498 573 29,000  Level Atlanta Center
10:34AM 35.2842 -81.4564 57° Northeast 498 573 29,000  Level Atlanta Center
10:35AM 35.3583 -81.3114 58° Northeast 498 573 29,000  Level Atlanta Center
10:36AM 35.4322 -81.1661 58° Northeast 498 573 29,000  Level Atlanta Center
10:37AM 35.5081 -81.0233 57° Northeast 498 573 29,000  Level Atlanta Center
10:38AM 35.5836 -80.8800 57° Northeast 503 579 29,000  Level Atlanta Center
10:39AM 35.6572 -80.7367 58° Northeast 503 579 29,000  Level Atlanta Center
10:40AM 35.7383 -80.5772 58° Northeast 503 579 29,000  Level Atlanta Center
10:43AM 35.8856 -80.2911 58° Northeast 490 564 29,000  Level Washington Center
10:44AM 35.9736 -80.1219 57° Northeast 488 562 29,000  Level Washington Center
10:45AM 36.0408 -79.9878 58° Northeast 489 563 29,000  Level Washington Center
10:46AM 36.1186 -79.8500 55° Northeast 488 562 29,000  Level Washington Center
10:47AM 36.2111 -79.6844 55° Northeast 488 562 29,000  Level Washington Center
10:48AM 36.2881 -79.5497 55° Northeast 483 556 29,000  Level Washington Center
10:49AM 36.3653 -79.4108 55° Northeast 483 556 29,000 -420 Level Washington Center
10:50AM 36.4436 -79.2708 55° Northeast 484 557 28,200 -960 Descending Washington Center
10:51AM 36.5300 -79.1181 55° Northeast 500 575 27,100 -1,020 Descending Washington Center
10:52AM 36.6036 -78.9836 56° Northeast 507 583 26,200 -1,020 Descending Washington Center
10:53AM 36.6903 -78.8281 55° Northeast 497 572 25,100 -600 Descending Washington Center
10:54AM 36.7647 -78.6931 55° Northeast 492 566 25,000 -60 Descending Washington Center
10:55AM 36.8486 -78.5400 56° Northeast 463 533 25,000  Level Washington Center
10:56AM 36.9097 -78.4289 55° Northeast 456 525 25,000  Level Washington Center
10:57AM 36.9850 -78.2883 56° Northeast 454 522 25,000  Level Washington Center
10:58AM 37.0914 -78.1675 42° Northeast 455 524 25,000 -360 Level Washington Center
10:59AM 37.1897 -78.0908 32° Northeast 447 514 24,300 -1,080 Descending Washington Center
11:00AM 37.2953 -78.0086 32° Northeast 447 514 22,800 -1,140 Descending Washington Center
11:01AM 37.3964 -77.9314 31° Northeast 432 497 22,000 -480 Descending Washington Center
11:02AM 37.5144 -77.8400 32° Northeast 419 482 21,900 -600 Descending Washington Center
11:03AM 37.6217 -77.7753 26° Northeast 423 487 20,800 -1,380 Descending Washington Center
11:05AM 37.8211 -77.6572 25° Northeast 396 456 17,700 -1,740 Descending Washington Center
11:06AM 37.9169 -77.6033 24° Northeast 383 441 15,500 -2,160 Descending Washington Center
11:07AM 38.0092 -77.5467 26° Northeast 376 433 13,300 -2,340 Descending Washington Center
11:08AM 38.1133 -77.4856 25° Northeast 357 411 10,700 -1,620 Descending Washington Center
11:10AM 38.1964 -77.4356 25° Northeast 339 390 10,000 -420 Descending Washington Center
11:11AM 38.2772 -77.3878 25° Northeast 329 379 9,900 -840 Descending Washington Center
11:12AM 38.3614 -77.3539 18° North 324 373 8,400 -1,500 Descending Washington Center
11:13AM 38.4461 -77.3578 358° North 312 359 6,900 -1,560 Descending Washington Center
11:14AM 38.5422 -77.3611 358° North 295 339 5,100 -1,020 Descending Washington Center
11:15AM 38.6242 -77.3631 359° North 295 339 4,800 -540 Descending Washington Center
11:16AM 38.7000 -77.3667 358° North 286 329 4,200 -480 Descending Potomac TRACON
11:17AM 38.7833 -77.3500 North 291 335 4,000 -120 Descending Potomac TRACON
11:17AM 38.8500 -77.3500 360° North 293 337 4,000  Level Potomac TRACON
11:18AM 38.9333 -77.3500 360° North 287 330 4,000 -360 Level Potomac TRACON
11:20AM 39.0000 -77.3500 360° North 226 260 3,300 -660 Descending Potomac TRACON
11:21AM 39.0667 -77.3500 360° North 205 236 2,700 -720 Descending Potomac TRACON
11:21AM 39.0833 -77.3833 303° West 193 222 2,000 -420 Descending Potomac TRACON
11:22AM 39.0667 -77.4333 247° West 170 196 2,000 -120 Level Potomac TRACON
11:23AM 39.0333 -77.4333 180° South 133 153 1,800 -480 Descending Potomac TRACON
11:24AM 39.0000 -77.4333 180° South 139 160 1,100 -600 Descending Potomac TRACON
11:26AM 38.9311 -77.4364 182° South 138 159 300 -480 Descending Washington Center